createdAt,value
2019-06-01T00:02:10.000Z,284.71
2019-06-01T00:03:33.000Z,284.65
2019-06-01T00:05:35.000Z,284.52
2019-06-01T00:07:01.000Z,284.52
2019-06-01T00:09:04.000Z,284.4
2019-06-01T00:10:28.000Z,284.46
2019-06-01T00:12:29.000Z,284.4
2019-06-01T00:13:52.000Z,284.34
2019-06-01T00:15:56.000Z,284.27
2019-06-01T00:17:19.000Z,284.27
2019-06-01T00:19:23.000Z,284.27
2019-06-01T00:20:46.000Z,284.27
2019-06-01T00:22:51.000Z,284.21
2019-06-01T00:24:15.000Z,284.21
2019-06-01T00:26:17.000Z,284.27
2019-06-01T00:27:45.000Z,284.27
2019-06-01T00:29:47.000Z,284.15
2019-06-01T00:31:12.000Z,284.21
2019-06-01T00:33:13.000Z,284.15
2019-06-01T00:34:37.000Z,284.09
2019-06-01T00:36:39.000Z,284.02
2019-06-01T00:38:04.000Z,284.02
2019-06-01T00:40:06.000Z,284.02
2019-06-01T00:41:30.000Z,283.96
2019-06-01T00:43:32.000Z,283.96
2019-06-01T00:44:56.000Z,283.96
2019-06-01T00:46:58.000Z,283.9
2019-06-01T00:48:21.000Z,283.9
2019-06-01T00:50:27.000Z,283.9
2019-06-01T00:51:51.000Z,283.96
2019-06-01T00:53:55.000Z,283.84
2019-06-01T00:55:20.000Z,283.84
2019-06-01T00:57:27.000Z,283.84
2019-06-01T00:58:50.000Z,283.77
2019-06-01T01:00:52.000Z,283.77
2019-06-01T01:02:21.000Z,283.77
2019-06-01T01:04:25.000Z,283.77
2019-06-01T01:05:51.000Z,283.77
2019-06-01T01:07:52.000Z,283.77
2019-06-01T01:09:20.000Z,283.77
2019-06-01T01:11:25.000Z,283.71
2019-06-01T01:12:53.000Z,283.71
2019-06-01T01:14:59.000Z,283.77
2019-06-01T01:16:28.000Z,283.77
2019-06-01T01:18:37.000Z,283.71
2019-06-01T01:20:03.000Z,283.65
2019-06-01T01:22:09.000Z,283.59
2019-06-01T01:23:32.000Z,283.59
2019-06-01T01:25:39.000Z,283.52
2019-06-01T01:27:03.000Z,283.52
2019-06-01T01:29:05.000Z,283.4
2019-06-01T01:30:31.000Z,283.4
2019-06-01T01:32:36.000Z,283.4
2019-06-01T01:34:02.000Z,283.4
2019-06-01T01:36:05.000Z,283.46
2019-06-01T01:37:31.000Z,283.46
2019-06-01T01:39:39.000Z,283.46
2019-06-01T01:41:02.000Z,283.4
2019-06-01T01:43:08.000Z,283.34
2019-06-01T01:44:31.000Z,283.27
2019-06-01T01:46:36.000Z,283.27
2019-06-01T01:48:03.000Z,283.27
2019-06-01T01:50:09.000Z,283.27
2019-06-01T01:51:37.000Z,283.34
2019-06-01T01:53:40.000Z,283.21
2019-06-01T01:55:05.000Z,283.21
2019-06-01T01:57:10.000Z,283.21
2019-06-01T01:58:41.000Z,283.27
2019-06-01T02:00:48.000Z,283.34
2019-06-01T02:02:20.000Z,283.34
2019-06-01T02:04:22.000Z,283.21
2019-06-01T02:05:47.000Z,283.21
2019-06-01T02:07:52.000Z,283.09
2019-06-01T02:09:21.000Z,283.09
2019-06-01T02:11:35.000Z,283.15
2019-06-01T02:13:02.000Z,283.15
2019-06-01T02:15:08.000Z,283.09
2019-06-01T02:16:34.000Z,283.09
2019-06-01T02:18:42.000Z,283.02
2019-06-01T02:20:12.000Z,282.96
2019-06-01T02:22:29.000Z,282.96
2019-06-01T02:23:52.000Z,282.96
2019-06-01T02:25:58.000Z,282.9
2019-06-01T02:27:28.000Z,282.84
2019-06-01T02:29:38.000Z,282.84
2019-06-01T02:31:06.000Z,282.77
2019-06-01T02:33:12.000Z,282.77
2019-06-01T02:34:44.000Z,282.77
2019-06-01T02:36:55.000Z,282.71
2019-06-01T02:38:24.000Z,282.71
2019-06-01T02:40:32.000Z,282.77
2019-06-01T02:42:03.000Z,282.77
2019-06-01T02:44:14.000Z,282.71
2019-06-01T02:45:45.000Z,282.77
2019-06-01T02:47:56.000Z,282.71
2019-06-01T02:49:27.000Z,282.65
2019-06-01T02:51:40.000Z,282.59
2019-06-01T02:53:08.000Z,282.59
2019-06-01T02:55:18.000Z,282.59
2019-06-01T02:56:52.000Z,282.52
2019-06-01T02:59:04.000Z,282.52
2019-06-01T03:00:34.000Z,282.59
2019-06-01T03:02:43.000Z,282.52
2019-06-01T03:04:11.000Z,282.65
2019-06-01T03:06:22.000Z,282.65
2019-06-01T03:07:49.000Z,282.59
2019-06-01T03:09:56.000Z,282.59
2019-06-01T03:11:26.000Z,282.59
2019-06-01T03:13:39.000Z,282.52
2019-06-01T03:15:07.000Z,282.59
2019-06-01T03:17:17.000Z,282.52
2019-06-01T03:18:47.000Z,282.52
2019-06-01T03:22:15.000Z,282.46
2019-06-01T03:23:37.000Z,282.52
2019-06-01T03:25:38.000Z,282.52
2019-06-01T03:27:00.000Z,282.59
2019-06-01T03:29:03.000Z,282.65
2019-06-01T03:30:27.000Z,282.65
2019-06-01T03:32:29.000Z,282.65
2019-06-01T03:33:57.000Z,282.59
2019-06-01T03:36:00.000Z,282.59
2019-06-01T03:37:22.000Z,282.59
2019-06-01T03:39:23.000Z,282.65
2019-06-01T03:40:45.000Z,282.65
2019-06-01T03:42:46.000Z,282.65
2019-06-01T03:44:08.000Z,282.71
2019-06-01T03:46:09.000Z,282.71
2019-06-01T03:47:33.000Z,282.84
2019-06-01T03:49:34.000Z,282.9
2019-06-01T03:50:55.000Z,282.96
2019-06-01T03:52:56.000Z,283.02
2019-06-01T03:54:18.000Z,283.09
2019-06-01T03:56:19.000Z,283.15
2019-06-01T03:57:41.000Z,283.15
2019-06-01T03:59:42.000Z,283.21
2019-06-01T04:01:06.000Z,283.27
2019-06-01T04:03:09.000Z,283.4
2019-06-01T04:04:33.000Z,283.4
2019-06-01T04:06:34.000Z,283.52
2019-06-01T04:07:57.000Z,283.52
2019-06-01T04:09:58.000Z,283.59
2019-06-01T04:11:21.000Z,283.59
2019-06-01T04:13:22.000Z,283.65
2019-06-01T04:14:44.000Z,283.65
2019-06-01T04:16:45.000Z,283.65
2019-06-01T04:18:07.000Z,283.65
2019-06-01T04:20:09.000Z,283.71
2019-06-01T04:21:34.000Z,283.71
2019-06-01T04:23:35.000Z,283.71
2019-06-01T04:24:57.000Z,283.65
2019-06-01T04:26:59.000Z,283.65
2019-06-01T04:28:22.000Z,283.71
2019-06-01T04:30:24.000Z,283.77
2019-06-01T04:31:47.000Z,283.77
2019-06-01T04:33:48.000Z,283.9
2019-06-01T04:35:10.000Z,284.02
2019-06-01T04:37:13.000Z,284.27
2019-06-01T04:38:34.000Z,284.4
2019-06-01T04:40:35.000Z,284.34
2019-06-01T04:42:00.000Z,284.34
2019-06-01T04:44:02.000Z,284.59
2019-06-01T04:45:26.000Z,284.65
2019-06-01T04:47:27.000Z,284.65
2019-06-01T04:48:49.000Z,284.71
2019-06-01T04:50:54.000Z,284.84
2019-06-01T04:52:15.000Z,284.96
2019-06-01T04:54:17.000Z,284.84
2019-06-01T04:55:40.000Z,284.96
2019-06-01T04:57:44.000Z,285.21
2019-06-01T04:59:10.000Z,285.4
2019-06-01T05:01:13.000Z,285.34
2019-06-01T05:02:37.000Z,285.27
2019-06-01T05:04:39.000Z,285.34
2019-06-01T05:06:06.000Z,285.34
2019-06-01T05:08:08.000Z,285.15
2019-06-01T05:09:37.000Z,285.27
2019-06-01T05:11:39.000Z,285.4
2019-06-01T05:13:02.000Z,285.34
2019-06-01T05:15:05.000Z,285.34
2019-06-01T05:16:30.000Z,285.4
2019-06-01T05:18:33.000Z,285.46
2019-06-01T05:19:56.000Z,285.52
2019-06-01T05:22:00.000Z,285.52
2019-06-01T05:23:23.000Z,285.4
2019-06-01T05:25:25.000Z,285.46
2019-06-01T05:26:48.000Z,285.46
2019-06-01T05:28:51.000Z,285.59
2019-06-01T05:30:17.000Z,285.65
2019-06-01T05:32:22.000Z,285.65
2019-06-01T05:33:47.000Z,285.59
2019-06-01T05:35:52.000Z,285.65
2019-06-01T05:37:21.000Z,285.65
2019-06-01T05:39:22.000Z,285.71
2019-06-01T05:40:45.000Z,285.77
2019-06-01T05:42:50.000Z,285.9
2019-06-01T05:44:15.000Z,285.9
2019-06-01T05:46:20.000Z,286.02
2019-06-01T05:47:48.000Z,286.27
2019-06-01T05:49:51.000Z,286.59
2019-06-01T05:51:16.000Z,286.71
2019-06-01T05:53:24.000Z,286.65
2019-06-01T05:54:48.000Z,286.52
2019-06-01T05:56:53.000Z,286.65
2019-06-01T05:58:19.000Z,286.71
2019-06-01T06:00:22.000Z,286.71
2019-06-01T06:01:49.000Z,286.84
2019-06-01T06:03:52.000Z,286.9
2019-06-01T06:05:14.000Z,286.96
2019-06-01T06:07:17.000Z,287.21
2019-06-01T06:08:41.000Z,287.21
2019-06-01T06:10:47.000Z,287.34
2019-06-01T06:12:17.000Z,287.27
2019-06-01T06:14:23.000Z,287.34
2019-06-01T06:15:46.000Z,287.21
2019-06-01T06:17:53.000Z,287.46
2019-06-01T06:19:22.000Z,287.52
2019-06-01T06:21:32.000Z,287.71
2019-06-01T06:22:57.000Z,287.84
2019-06-01T06:24:59.000Z,288.09
2019-06-01T06:26:24.000Z,288.27
2019-06-01T06:28:29.000Z,288.34
2019-06-01T06:29:55.000Z,288.46
2019-06-01T06:32:02.000Z,288.52
2019-06-01T06:33:32.000Z,288.59
2019-06-01T06:35:42.000Z,288.71
2019-06-01T06:37:05.000Z,288.84
2019-06-01T06:39:14.000Z,289.02
2019-06-01T06:40:43.000Z,289.09
2019-06-01T06:42:46.000Z,289.09
2019-06-01T06:44:09.000Z,288.96
2019-06-01T06:46:14.000Z,288.77
2019-06-01T06:47:47.000Z,288.65
2019-06-01T06:49:53.000Z,288.77
2019-06-01T06:51:21.000Z,288.77
2019-06-01T06:53:31.000Z,288.84
2019-06-01T06:55:04.000Z,288.84
2019-06-01T06:57:09.000Z,288.84
2019-06-01T06:58:38.000Z,289.02
2019-06-01T07:00:48.000Z,289.09
2019-06-01T07:02:15.000Z,289.15
2019-06-01T07:04:25.000Z,289.21
2019-06-01T07:05:52.000Z,289.27
2019-06-01T07:07:58.000Z,289.34
2019-06-01T07:09:24.000Z,289.46
2019-06-01T07:11:35.000Z,289.52
2019-06-01T07:13:04.000Z,289.65
2019-06-01T07:15:17.000Z,289.9
2019-06-01T07:16:51.000Z,289.96
2019-06-01T07:18:54.000Z,290.27
2019-06-01T07:20:19.000Z,290.27
2019-06-01T07:22:27.000Z,290.09
2019-06-01T07:23:57.000Z,290.09
2019-06-01T07:26:08.000Z,289.96
2019-06-01T07:27:42.000Z,289.84
2019-06-01T07:29:52.000Z,289.9
2019-06-01T07:31:21.000Z,290.15
2019-06-01T07:33:34.000Z,290.46
2019-06-01T07:35:02.000Z,290.59
2019-06-01T07:37:10.000Z,290.59
2019-06-01T07:38:44.000Z,290.71
2019-06-01T07:40:57.000Z,290.96
2019-06-01T07:42:29.000Z,291.02
2019-06-01T07:44:42.000Z,291.09
2019-06-01T07:46:09.000Z,291.15
2019-06-01T07:48:18.000Z,291.21
2019-06-01T07:49:51.000Z,291.46
2019-06-01T07:52:00.000Z,291.59
2019-06-01T07:53:42.000Z,291.65
2019-06-01T07:55:55.000Z,291.9
2019-06-01T07:57:26.000Z,292.02
2019-06-01T07:59:39.000Z,292.15
2019-06-01T08:01:05.000Z,292.21
2019-06-01T08:03:20.000Z,292.27
2019-06-01T08:04:58.000Z,292.4
2019-06-01T08:07:12.000Z,292.65
2019-06-01T08:08:44.000Z,292.71
2019-06-01T08:12:10.000Z,292.9
2019-06-01T08:13:32.000Z,293.09
2019-06-01T08:15:34.000Z,293.21
2019-06-01T08:16:56.000Z,293.34
2019-06-01T08:18:57.000Z,293.59
2019-06-01T08:20:20.000Z,293.59
2019-06-01T08:22:20.000Z,293.59
2019-06-01T08:23:43.000Z,293.52
2019-06-01T08:25:44.000Z,293.52
2019-06-01T08:27:07.000Z,293.46
2019-06-01T08:29:08.000Z,293.59
2019-06-01T08:30:30.000Z,293.9
2019-06-01T08:32:31.000Z,294.15
2019-06-01T08:33:53.000Z,294.15
2019-06-01T08:35:54.000Z,294.21
2019-06-01T08:37:17.000Z,294.09
2019-06-01T08:39:18.000Z,294.4
2019-06-01T08:40:40.000Z,294.52
2019-06-01T08:42:41.000Z,294.4
2019-06-01T08:44:03.000Z,294.59
2019-06-01T08:46:04.000Z,294.71
2019-06-01T08:47:32.000Z,294.71
2019-06-01T08:49:33.000Z,294.77
2019-06-01T08:50:55.000Z,294.9
2019-06-01T08:52:58.000Z,294.84
2019-06-01T08:54:21.000Z,294.65
2019-06-01T08:56:23.000Z,294.65
2019-06-01T08:57:46.000Z,294.59
2019-06-01T08:59:46.000Z,294.46
2019-06-01T09:01:10.000Z,294.34
2019-06-01T09:03:11.000Z,294.27
2019-06-01T09:04:33.000Z,294.27
2019-06-01T09:06:34.000Z,294.27
2019-06-01T09:07:58.000Z,294.21
2019-06-01T09:10:00.000Z,294.09
2019-06-01T09:11:22.000Z,294.09
2019-06-01T09:13:25.000Z,294.15
2019-06-01T09:14:49.000Z,294.46
2019-06-01T09:16:51.000Z,294.52
2019-06-01T09:18:15.000Z,294.59
2019-06-01T09:20:17.000Z,294.59
2019-06-01T09:21:39.000Z,294.71
2019-06-01T09:23:41.000Z,295.02
2019-06-01T09:25:04.000Z,295.02
2019-06-01T09:27:04.000Z,294.9
2019-06-01T09:28:27.000Z,294.9
2019-06-01T09:30:28.000Z,295.34
2019-06-01T09:31:52.000Z,295.59
2019-06-01T09:33:53.000Z,295.46
2019-06-01T09:35:15.000Z,295.4
2019-06-01T09:37:16.000Z,295.15
2019-06-01T09:38:39.000Z,295.15
2019-06-01T09:40:42.000Z,294.77
2019-06-01T09:42:04.000Z,294.77
2019-06-01T09:44:07.000Z,294.9
2019-06-01T09:45:30.000Z,295.02
2019-06-01T09:47:34.000Z,295.34
2019-06-01T09:48:57.000Z,295.34
2019-06-01T09:50:59.000Z,295.27
2019-06-01T09:52:22.000Z,295.27
2019-06-01T09:54:26.000Z,295.21
2019-06-01T09:55:50.000Z,295.21
2019-06-01T09:57:51.000Z,295.4
2019-06-01T09:59:13.000Z,295.27
2019-06-01T10:01:17.000Z,295.09
2019-06-01T10:02:39.000Z,295.09
2019-06-01T10:04:40.000Z,295.4
2019-06-01T10:06:04.000Z,295.4
2019-06-01T10:08:07.000Z,295.34
2019-06-01T10:09:31.000Z,295.15
2019-06-01T10:11:36.000Z,295.21
2019-06-01T10:12:58.000Z,295.52
2019-06-01T10:15:04.000Z,295.9
2019-06-01T10:16:28.000Z,296.27
2019-06-01T10:18:31.000Z,296.27
2019-06-01T10:19:57.000Z,296.34
2019-06-01T10:22:00.000Z,296.27
2019-06-01T10:23:23.000Z,296.09
2019-06-01T10:25:26.000Z,295.96
2019-06-01T10:26:54.000Z,296.4
2019-06-01T10:28:57.000Z,296.65
2019-06-01T10:30:21.000Z,297.09
2019-06-01T10:32:24.000Z,297.46
2019-06-01T10:33:48.000Z,297.4
2019-06-01T10:35:53.000Z,297.4
2019-06-01T10:37:18.000Z,297.27
2019-06-01T10:39:22.000Z,297.27
2019-06-01T10:40:48.000Z,297.59
2019-06-01T10:42:50.000Z,297.65
2019-06-01T10:44:12.000Z,297.59
2019-06-01T10:46:20.000Z,297.65
2019-06-01T10:47:42.000Z,297.96
2019-06-01T10:49:44.000Z,297.65
2019-06-01T10:51:10.000Z,297.4
2019-06-01T10:53:14.000Z,297.09
2019-06-01T10:54:39.000Z,296.96
2019-06-01T10:56:47.000Z,297.27
2019-06-01T10:58:16.000Z,297.52
2019-06-01T11:00:27.000Z,297.84
2019-06-01T11:02:08.000Z,297.96
2019-06-01T11:04:14.000Z,297.65
2019-06-01T11:05:38.000Z,297.71
2019-06-01T11:07:40.000Z,297.84
2019-06-01T11:09:05.000Z,298.02
2019-06-01T11:11:13.000Z,298.15
2019-06-01T11:12:39.000Z,298.15
2019-06-01T11:14:43.000Z,297.77
2019-06-01T11:16:06.000Z,298.02
2019-06-01T11:18:14.000Z,298.09
2019-06-01T11:19:37.000Z,297.96
2019-06-01T11:21:41.000Z,298.02
2019-06-01T11:23:06.000Z,297.84
2019-06-01T11:25:09.000Z,298.34
2019-06-01T11:26:36.000Z,298.52
2019-06-01T11:28:47.000Z,298.84
2019-06-01T11:30:13.000Z,298.59
2019-06-01T11:32:21.000Z,298.77
2019-06-01T11:33:50.000Z,298.84
2019-06-01T11:36:00.000Z,298.77
2019-06-01T11:37:34.000Z,298.71
2019-06-01T11:39:41.000Z,298.77
2019-06-01T11:41:10.000Z,298.96
2019-06-01T11:43:22.000Z,299.21
2019-06-01T11:44:51.000Z,299.15
2019-06-01T11:46:53.000Z,299.4
2019-06-01T11:48:25.000Z,299.34
2019-06-01T11:50:44.000Z,299.15
2019-06-01T11:52:15.000Z,299.21
2019-06-01T11:54:28.000Z,299.46
2019-06-01T11:55:57.000Z,299.34
2019-06-01T11:58:10.000Z,299.34
2019-06-01T11:59:44.000Z,299.02
2019-06-01T12:01:48.000Z,298.71
2019-06-01T12:03:18.000Z,298.46
2019-06-01T12:05:28.000Z,299.27
2019-06-01T12:07:04.000Z,299.46
2019-06-01T12:09:30.000Z,299.21
2019-06-01T12:11:01.000Z,299.15
2019-06-01T12:13:14.000Z,299.15
2019-06-01T12:14:45.000Z,298.9
2019-06-01T12:17:00.000Z,298.65
2019-06-01T12:18:29.000Z,298.52
2019-06-01T12:20:37.000Z,299.09
2019-06-01T12:22:12.000Z,299.59
2019-06-01T12:25:50.000Z,299.21
2019-06-01T12:26:42.000Z,299.4
2019-06-01T12:28:15.000Z,299.34
2019-06-01T12:30:25.000Z,299.34
2019-06-01T12:31:53.000Z,299.27
2019-06-01T12:33:59.000Z,299.34
2019-06-01T12:35:29.000Z,299.59
2019-06-01T12:37:39.000Z,299.4
2019-06-01T12:39:33.000Z,299.59
2019-06-01T12:41:37.000Z,299.46
2019-06-01T12:43:09.000Z,299.52
2019-06-01T12:45:20.000Z,299.21
2019-06-01T12:46:47.000Z,299.21
2019-06-01T12:48:54.000Z,299.52
2019-06-01T12:50:24.000Z,299.4
2019-06-01T12:52:32.000Z,299.09
2019-06-01T12:54:04.000Z,299.09
2019-06-01T12:56:12.000Z,299.15
2019-06-01T12:57:41.000Z,299.27
2019-06-01T13:01:04.000Z,299.46
2019-06-01T13:02:26.000Z,299.52
2019-06-01T13:04:27.000Z,299.9
2019-06-01T13:05:49.000Z,300.15
2019-06-01T13:07:50.000Z,300.09
2019-06-01T13:09:22.000Z,300.52
2019-06-01T13:11:23.000Z,300.21
2019-06-01T13:12:45.000Z,299.65
2019-06-01T13:14:46.000Z,299.59
2019-06-01T13:16:09.000Z,299.71
2019-06-01T13:18:10.000Z,299.96
2019-06-01T13:19:32.000Z,299.84
2019-06-01T13:21:34.000Z,299.65
2019-06-01T13:22:56.000Z,299.77
2019-06-01T13:24:58.000Z,299.65
2019-06-01T13:26:20.000Z,300.15
2019-06-01T13:28:21.000Z,299.96
2019-06-01T13:29:58.000Z,299.96
2019-06-01T13:32:00.000Z,300.34
2019-06-01T13:33:22.000Z,300.59
2019-06-01T13:35:23.000Z,300.77
2019-06-01T13:36:45.000Z,300.96
2019-06-01T13:38:46.000Z,300.59
2019-06-01T13:40:08.000Z,300.09
2019-06-01T13:42:09.000Z,299.52
2019-06-01T13:43:31.000Z,299.15
2019-06-01T13:45:32.000Z,298.84
2019-06-01T13:46:54.000Z,298.77
2019-06-01T13:48:55.000Z,298.71
2019-06-01T13:50:19.000Z,299.15
2019-06-01T13:52:20.000Z,299.52
2019-06-01T13:53:45.000Z,299.59
2019-06-01T13:55:47.000Z,299.96
2019-06-01T13:57:12.000Z,299.84
2019-06-01T13:59:14.000Z,299.9
2019-06-01T14:00:37.000Z,300.34
2019-06-01T14:02:38.000Z,300.09
2019-06-01T14:04:01.000Z,299.96
2019-06-01T14:06:02.000Z,300.15
2019-06-01T14:07:24.000Z,300.27
2019-06-01T14:09:28.000Z,300.46
2019-06-01T14:10:51.000Z,300.46
2019-06-01T14:12:55.000Z,300.65
2019-06-01T14:14:19.000Z,300.65
2019-06-01T14:16:23.000Z,300.52
2019-06-01T14:17:46.000Z,300.46
2019-06-01T14:19:50.000Z,300.34
2019-06-01T14:21:12.000Z,300.27
2019-06-01T14:23:13.000Z,300.59
2019-06-01T14:24:35.000Z,300.52
2019-06-01T14:28:16.000Z,300.21
2019-06-01T14:30:30.000Z,300.09
2019-06-01T14:31:52.000Z,300.65
2019-06-01T14:33:55.000Z,300.65
2019-06-01T14:35:17.000Z,300.34
2019-06-01T14:37:18.000Z,300.52
2019-06-01T14:38:40.000Z,300.59
2019-06-01T14:40:47.000Z,301.09
2019-06-01T14:42:13.000Z,301.21
2019-06-01T14:44:14.000Z,300.96
2019-06-01T14:45:36.000Z,300.59
2019-06-01T14:47:37.000Z,300.71
2019-06-01T14:48:59.000Z,300.77
2019-06-01T14:51:01.000Z,300.84
2019-06-01T14:52:24.000Z,300.59
2019-06-01T14:54:25.000Z,300.84
2019-06-01T14:55:47.000Z,300.96
2019-06-01T14:57:49.000Z,301.34
2019-06-01T14:59:12.000Z,301.02
2019-06-01T15:01:13.000Z,300.9
2019-06-01T15:02:52.000Z,300.9
2019-06-01T15:04:54.000Z,300.65
2019-06-01T15:06:16.000Z,300.71
2019-06-01T15:08:19.000Z,301.27
2019-06-01T15:09:41.000Z,301.65
2019-06-01T15:11:42.000Z,301.65
2019-06-01T15:13:04.000Z,301.59
2019-06-01T15:15:05.000Z,301.15
2019-06-01T15:16:27.000Z,300.9
2019-06-01T15:18:29.000Z,301.21
2019-06-01T15:19:51.000Z,301.09
2019-06-01T15:21:52.000Z,301.02
2019-06-01T15:23:16.000Z,300.96
2019-06-01T15:25:17.000Z,301.15
2019-06-01T15:26:41.000Z,300.9
2019-06-01T15:28:42.000Z,300.71
2019-06-01T15:30:04.000Z,301.02
2019-06-01T15:32:05.000Z,300.84
2019-06-01T15:33:27.000Z,300.65
2019-06-01T15:35:28.000Z,300.71
2019-06-01T15:36:51.000Z,300.59
2019-06-01T15:38:52.000Z,300.65
2019-06-01T15:40:16.000Z,300.96
2019-06-01T15:42:18.000Z,300.84
2019-06-01T15:43:40.000Z,300.84
2019-06-01T15:45:42.000Z,300.77
2019-06-01T15:47:04.000Z,300.84
2019-06-01T15:49:05.000Z,300.65
2019-06-01T15:50:30.000Z,300.59
2019-06-01T15:52:37.000Z,300.52
2019-06-01T15:54:00.000Z,300.27
2019-06-01T15:56:02.000Z,300.59
2019-06-01T15:57:27.000Z,300.34
2019-06-01T15:59:30.000Z,300.21
2019-06-01T16:00:54.000Z,300.15
2019-06-01T16:02:56.000Z,300.21
2019-06-01T16:04:19.000Z,300.34
2019-06-01T16:06:21.000Z,300.46
2019-06-01T16:07:44.000Z,300.4
2019-06-01T16:09:46.000Z,300.34
2019-06-01T16:11:10.000Z,300.27
2019-06-01T16:13:12.000Z,300.09
2019-06-01T16:14:35.000Z,300.02
2019-06-01T16:16:40.000Z,300.21
2019-06-01T16:18:04.000Z,300.27
2019-06-01T16:20:07.000Z,300.21
2019-06-01T16:21:31.000Z,300.02
2019-06-01T16:23:33.000Z,299.9
2019-06-01T16:25:11.000Z,299.84
2019-06-01T16:30:32.000Z,300.15
2019-06-01T16:31:54.000Z,300.15
2019-06-01T16:33:57.000Z,300.09
2019-06-01T16:35:20.000Z,299.96
2019-06-01T16:37:21.000Z,300.34
2019-06-01T16:38:45.000Z,300.34
2019-06-01T16:40:46.000Z,299.96
2019-06-01T16:42:08.000Z,299.9
2019-06-01T16:44:13.000Z,299.84
2019-06-01T16:45:40.000Z,299.77
2019-06-01T16:47:42.000Z,299.9
2019-06-01T16:49:04.000Z,299.9
2019-06-01T16:51:05.000Z,299.84
2019-06-01T16:52:27.000Z,299.96
2019-06-01T16:54:28.000Z,300.02
2019-06-01T16:55:51.000Z,300.09
2019-06-01T16:57:52.000Z,300.15
2019-06-01T16:59:15.000Z,300.02
2019-06-01T17:01:16.000Z,299.84
2019-06-01T17:02:38.000Z,299.96
2019-06-01T17:04:39.000Z,299.96
2019-06-01T17:06:02.000Z,300.02
2019-06-01T17:08:06.000Z,299.84
2019-06-01T17:09:29.000Z,299.96
2019-06-01T17:11:31.000Z,299.84
2019-06-01T17:12:53.000Z,299.96
2019-06-01T17:14:55.000Z,299.84
2019-06-01T17:16:19.000Z,299.84
2019-06-01T17:18:20.000Z,299.71
2019-06-01T17:19:43.000Z,299.65
2019-06-01T17:21:44.000Z,299.9
2019-06-01T17:23:06.000Z,299.71
2019-06-01T17:25:26.000Z,299.46
2019-06-01T17:26:48.000Z,299.46
2019-06-01T17:28:50.000Z,299.59
2019-06-01T17:30:19.000Z,299.4
2019-06-01T17:32:21.000Z,299.21
2019-06-01T17:33:45.000Z,299.27
2019-06-01T17:35:47.000Z,299.21
2019-06-01T17:37:10.000Z,299.15
2019-06-01T17:39:12.000Z,299.02
2019-06-01T17:40:36.000Z,298.9
2019-06-01T17:42:44.000Z,298.65
2019-06-01T17:44:06.000Z,298.59
2019-06-01T17:46:07.000Z,298.21
2019-06-01T17:47:31.000Z,298.27
2019-06-01T17:49:34.000Z,298.34
2019-06-01T17:50:58.000Z,298.15
2019-06-01T17:52:59.000Z,298.02
2019-06-01T17:54:22.000Z,298.02
2019-06-01T17:56:24.000Z,297.96
2019-06-01T17:57:48.000Z,297.96
2019-06-01T17:59:50.000Z,297.9
2019-06-01T18:01:14.000Z,297.77
2019-06-01T18:03:18.000Z,297.52
2019-06-01T18:04:42.000Z,297.59
2019-06-01T18:06:44.000Z,297.4
2019-06-01T18:08:06.000Z,297.34
2019-06-01T18:10:12.000Z,297.09
2019-06-01T18:11:35.000Z,297.02
2019-06-01T18:13:38.000Z,296.96
2019-06-01T18:15:00.000Z,296.96
2019-06-01T18:17:07.000Z,296.84
2019-06-01T18:18:30.000Z,296.77
2019-06-01T18:20:32.000Z,296.59
2019-06-01T18:21:56.000Z,296.34
2019-06-01T18:23:57.000Z,296.21
2019-06-01T18:25:29.000Z,296.15
2019-06-01T18:27:30.000Z,296.09
2019-06-01T18:28:53.000Z,295.96
2019-06-01T18:30:57.000Z,296.09
2019-06-01T18:32:20.000Z,296.02
2019-06-01T18:34:24.000Z,295.9
2019-06-01T18:35:50.000Z,295.65
2019-06-01T18:37:53.000Z,295.46
2019-06-01T18:39:18.000Z,295.4
2019-06-01T18:41:20.000Z,295.09
2019-06-01T18:42:46.000Z,295.02
2019-06-01T18:44:51.000Z,294.9
2019-06-01T18:46:14.000Z,294.71
2019-06-01T18:48:17.000Z,294.59
2019-06-01T18:49:40.000Z,294.46
2019-06-01T18:51:41.000Z,294.27
2019-06-01T18:53:07.000Z,294.15
2019-06-01T18:55:15.000Z,294.02
2019-06-01T18:56:41.000Z,293.96
2019-06-01T18:58:50.000Z,293.71
2019-06-01T19:00:15.000Z,293.65
2019-06-01T19:02:20.000Z,293.59
2019-06-01T19:03:42.000Z,293.52
2019-06-01T19:05:49.000Z,293.34
2019-06-01T19:07:14.000Z,293.34
2019-06-01T19:09:17.000Z,293.27
2019-06-01T19:10:40.000Z,293.21
2019-06-01T19:12:46.000Z,292.96
2019-06-01T19:14:13.000Z,292.96
2019-06-01T19:16:15.000Z,292.77
2019-06-01T19:17:45.000Z,292.77
2019-06-01T19:19:53.000Z,292.59
2019-06-01T19:21:22.000Z,292.59
2019-06-01T19:23:28.000Z,292.52
2019-06-01T19:24:51.000Z,292.46
2019-06-01T19:26:54.000Z,292.34
2019-06-01T19:28:21.000Z,292.21
2019-06-01T19:30:32.000Z,291.96
2019-06-01T19:31:57.000Z,291.96
2019-06-01T19:34:02.000Z,291.84
2019-06-01T19:35:33.000Z,291.84
2019-06-01T19:37:40.000Z,291.71
2019-06-01T19:39:05.000Z,291.59
2019-06-01T19:41:13.000Z,291.77
2019-06-01T19:42:38.000Z,291.84
2019-06-01T19:44:46.000Z,291.96
2019-06-01T19:46:15.000Z,292.02
2019-06-01T19:48:19.000Z,291.84
2019-06-01T19:49:43.000Z,291.65
2019-06-01T19:51:47.000Z,291.46
2019-06-01T19:53:15.000Z,291.4
2019-06-01T19:55:22.000Z,291.4
2019-06-01T19:56:47.000Z,291.27
2019-06-01T19:58:54.000Z,291.09
2019-06-01T20:00:21.000Z,290.96
2019-06-01T20:02:31.000Z,290.71
2019-06-01T20:03:56.000Z,290.59
2019-06-01T20:06:05.000Z,290.46
2019-06-01T20:07:34.000Z,290.46
2019-06-01T20:09:42.000Z,290.59
2019-06-01T20:11:12.000Z,290.59
2019-06-01T20:13:21.000Z,290.34
2019-06-01T20:14:50.000Z,290.27
2019-06-01T20:16:57.000Z,290.09
2019-06-01T20:18:27.000Z,289.96
2019-06-01T20:20:31.000Z,289.9
2019-06-01T20:22:01.000Z,289.9
2019-06-01T20:24:11.000Z,289.9
2019-06-01T20:25:43.000Z,289.96
2019-06-01T20:27:52.000Z,289.96
2019-06-01T20:29:20.000Z,289.9
2019-06-01T20:31:34.000Z,289.77
2019-06-01T20:33:03.000Z,289.71
2019-06-01T20:35:15.000Z,289.59
2019-06-01T20:36:46.000Z,289.52
2019-06-01T20:38:57.000Z,289.46
2019-06-01T20:40:34.000Z,289.21
2019-06-01T20:42:43.000Z,289.15
2019-06-01T20:44:15.000Z,289.21
2019-06-01T20:46:28.000Z,289.09
2019-06-01T20:47:57.000Z,288.96
2019-06-01T20:50:07.000Z,288.96
2019-06-01T20:51:36.000Z,288.96
2019-06-01T20:53:46.000Z,288.84
2019-06-01T20:55:16.000Z,288.84
2019-06-01T20:57:26.000Z,288.77
2019-06-01T20:58:54.000Z,288.71
2019-06-01T21:01:04.000Z,288.65
2019-06-01T21:02:30.000Z,288.65
2019-06-01T21:04:39.000Z,288.59
2019-06-01T21:06:06.000Z,288.59
2019-06-01T21:08:16.000Z,288.46
2019-06-01T21:09:51.000Z,288.4
2019-06-01T21:11:55.000Z,288.34
2019-06-01T21:13:25.000Z,288.21
2019-06-01T21:15:34.000Z,288.21
2019-06-01T21:17:03.000Z,288.21
2019-06-01T21:20:30.000Z,288.21
2019-06-01T21:21:52.000Z,288.27
2019-06-01T21:23:53.000Z,288.09
2019-06-01T21:25:17.000Z,287.96
2019-06-01T21:27:21.000Z,287.84
2019-06-01T21:28:43.000Z,287.9
2019-06-01T21:30:44.000Z,287.9
2019-06-01T21:32:06.000Z,287.9
2019-06-01T21:34:07.000Z,287.77
2019-06-01T21:35:29.000Z,287.77
2019-06-01T21:37:31.000Z,287.9
2019-06-01T21:38:54.000Z,287.84
2019-06-01T21:40:56.000Z,287.65
2019-06-01T21:42:18.000Z,287.65
2019-06-01T21:44:20.000Z,287.59
2019-06-01T21:45:43.000Z,287.59
2019-06-01T21:47:44.000Z,287.52
2019-06-01T21:49:07.000Z,287.52
2019-06-01T21:51:08.000Z,287.4
2019-06-01T21:52:31.000Z,287.34
2019-06-01T21:54:32.000Z,287.27
2019-06-01T21:55:54.000Z,287.27
2019-06-01T21:57:55.000Z,287.34
2019-06-01T21:59:19.000Z,287.27
2019-06-01T22:01:21.000Z,287.21
2019-06-01T22:02:44.000Z,287.21
2019-06-01T22:04:45.000Z,287.15
2019-06-01T22:06:07.000Z,287.09
2019-06-01T22:08:09.000Z,287.02
2019-06-01T22:09:34.000Z,287.02